Time;durP1;ratioP1;P1;durP2;ratioP2;P2;SDS_P1;SDS_P2;PMS_P1;PMS_P2;Temp;Humidity;BMP_temperature;BMP_pressure;BME280_temperature;BME280_humidity;BME280_pressure;Samples;Min_cycle;Max_cycle;Signal;HPM_P1;HPM_P2
2021/07/11 00:01:39;;;;;;;16.65;13.05;;;;;;;16.95;100.00;101301.59;6274487;28;20059;-75
2021/07/11 00:04:41;;;;;;;17.67;13.68;;;;;;;16.89;100.00;101299.38;6274199;28;20041;-76
2021/07/11 00:07:42;;;;;;;17.98;13.65;;;;;;;16.89;100.00;101307.34;6274345;28;20056;-75
2021/07/11 00:10:44;;;;;;;20.77;13.10;;;;;;;16.88;100.00;101310.09;6274217;28;20048;-76
2021/07/11 00:13:46;;;;;;;17.17;14.10;;;;;;;16.86;100.00;101307.56;6274124;28;20052;-75
2021/07/11 00:16:48;;;;;;;19.35;15.45;;;;;;;16.84;100.00;101317.44;6273849;28;20056;-77
2021/07/11 00:19:49;;;;;;;16.92;12.75;;;;;;;16.83;100.00;101298.97;6273627;28;20420;-77
2021/07/11 00:22:51;;;;;;;18.45;14.27;;;;;;;16.81;100.00;101309.69;6274025;28;20068;-75
2021/07/11 00:25:52;;;;;;;17.95;12.90;;;;;;;16.87;100.00;101306.59;6273717;28;20056;-75
2021/07/11 00:28:56;;;;;;;18.52;14.02;;;;;;;16.86;100.00;101298.75;6297176;22;20060;-79
2021/07/11 00:31:57;;;;;;;18.85;14.30;;;;;;;16.89;100.00;101312.63;6283139;28;20489;-78
2021/07/11 00:34:58;;;;;;;18.73;13.43;;;;;;;16.91;100.00;101304.59;6283480;28;20496;-78
2021/07/11 00:38:00;;;;;;;19.98;15.32;;;;;;;16.84;100.00;101301.50;6285396;28;20045;-78
2021/07/11 00:41:01;;;;;;;19.73;14.18;;;;;;;16.87;100.00;101309.25;6284970;28;20524;-78
2021/07/11 00:44:04;;;;;;;20.23;15.80;;;;;;;16.87;100.00;101305.75;6286976;28;20397;-78
2021/07/11 00:47:05;;;;;;;20.98;14.65;;;;;;;16.85;100.00;101305.88;6285357;28;20049;-78
2021/07/11 00:50:09;;;;;;;16.70;13.75;;;;;;;16.87;100.00;101308.41;6284740;28;20048;-78
2021/07/11 00:53:10;;;;;;;20.45;14.27;;;;;;;16.86;100.00;101304.91;6285310;28;20052;-78
2021/07/11 00:56:11;;;;;;;17.58;14.43;;;;;;;16.86;100.00;101310.22;6285875;28;20057;-78
2021/07/11 00:59:14;;;;;;;19.50;14.90;;;;;;;16.89;100.00;101311.78;6285554;28;20072;-79
2021/07/11 01:02:19;;;;;;;16.35;13.63;;;;;;;16.89;100.00;101309.13;6287597;28;20049;-79
2021/07/11 01:05:22;;;;;;;18.98;13.60;;;;;;;16.88;100.00;101312.75;6286563;28;20048;-79
2021/07/11 01:08:38;;;;;;;19.23;14.43;;;;;;;16.84;100.00;101304.16;6286623;28;20041;-78
2021/07/11 01:11:47;;;;;;;17.10;13.80;;;;;;;16.84;100.00;101311.28;6287747;28;20085;-79
2021/07/11 01:14:51;;;;;;;15.25;13.55;;;;;;;16.81;100.00;101316.81;6285635;28;20492;-78
2021/07/11 01:17:56;;;;;;;26.98;14.10;;;;;;;16.81;100.00;101309.69;6282524;28;20420;-79
2021/07/11 01:21:01;;;;;;;19.67;13.55;;;;;;;16.80;100.00;101315.94;6283310;28;20056;-78
2021/07/11 01:24:08;;;;;;;24.15;14.85;;;;;;;16.79;100.00;101316.06;6283182;28;20135;-78
2021/07/11 01:27:11;;;;;;;18.73;14.00;;;;;;;16.78;100.00;101314.38;6282631;28;20052;-79
2021/07/11 01:30:14;;;;;;;18.33;13.38;;;;;;;16.77;100.00;101316.19;6282916;28;20135;-78
2021/07/11 01:33:17;;;;;;;18.30;12.80;;;;;;;16.77;100.00;101313.53;6282348;28;20076;-78
2021/07/11 01:36:20;;;;;;;23.20;14.50;;;;;;;16.72;100.00;101318.31;6282148;28;20056;-78
2021/07/11 01:39:22;;;;;;;17.50;14.43;;;;;;;16.72;100.00;101315.66;6281765;28;20057;-78
2021/07/11 01:42:25;;;;;;;22.05;13.95;;;;;;;16.73;100.00;101328.81;6282535;28;20048;-79
2021/07/11 01:45:27;;;;;;;14.52;12.90;;;;;;;16.69;100.00;101323.78;6282566;28;20048;-79
2021/07/11 01:48:30;;;;;;;19.50;13.60;;;;;;;16.63;100.00;101322.41;6281576;28;20049;-78
2021/07/11 01:51:32;;;;;;;18.58;14.48;;;;;;;16.56;100.00;101321.13;6281662;28;20048;-78
2021/07/11 01:54:33;;;;;;;17.50;13.98;;;;;;;16.52;100.00;101318.81;6282550;28;20048;-78
2021/07/11 01:57:37;;;;;;;22.52;14.57;;;;;;;16.48;100.00;101316.34;6281355;28;20052;-78
2021/07/11 02:00:38;;;;;;;19.67;14.18;;;;;;;16.46;100.00;101314.78;6281591;28;20045;-78
2021/07/11 02:03:40;;;;;;;19.83;14.63;;;;;;;16.42;100.00;101313.28;6281517;28;20044;-78
2021/07/11 02:06:42;;;;;;;18.65;14.68;;;;;;;16.39;100.00;101318.78;6281145;28;20053;-79
2021/07/11 02:09:43;;;;;;;22.23;15.80;;;;;;;16.36;100.00;101309.25;6280702;28;20080;-78
2021/07/11 02:12:54;;;;;;;18.02;15.05;;;;;;;16.35;100.00;101312.00;6281169;28;20048;-78
2021/07/11 02:16:01;;;;;;;23.33;15.32;;;;;;;16.32;100.00;101299.81;6281284;28;20041;-78
2021/07/11 02:19:04;;;;;;;19.48;15.98;;;;;;;16.33;100.00;101295.34;6280854;28;20447;-78
2021/07/11 02:22:07;;;;;;;22.88;15.48;;;;;;;16.32;100.00;101291.00;6280665;28;20425;-78
2021/07/11 02:25:10;;;;;;;21.48;15.85;;;;;;;16.33;100.00;101295.34;6280816;28;20068;-78
2021/07/11 02:28:13;;;;;;;21.23;16.35;;;;;;;16.26;100.00;101297.59;6279914;28;20052;-78
2021/07/11 02:31:15;;;;;;;22.13;17.52;;;;;;;16.21;100.00;101295.25;6280229;28;20049;-78
2021/07/11 02:34:18;;;;;;;23.48;16.45;;;;;;;16.21;100.00;101291.72;6280663;28;20049;-78
2021/07/11 02:37:23;;;;;;;20.90;15.32;;;;;;;16.18;100.00;101294.59;6280436;28;20049;-78
2021/07/11 02:40:24;;;;;;;21.30;16.95;;;;;;;16.15;100.00;101289.50;6282183;28;20055;-78
2021/07/11 02:43:27;;;;;;;22.05;15.98;;;;;;;16.11;100.00;101294.16;6280930;28;20056;-78
2021/07/11 02:46:35;;;;;;;21.75;15.57;;;;;;;16.08;100.00;101294.38;6280363;28;20053;-78
2021/07/11 02:49:39;;;;;;;20.95;16.10;;;;;;;16.05;100.00;101291.94;6281492;28;20056;-78
2021/07/11 02:52:42;;;;;;;23.77;16.20;;;;;;;16.02;100.00;101301.88;6280882;28;20071;-78
2021/07/11 02:55:45;;;;;;;23.63;17.20;;;;;;;15.97;100.00;101292.44;6281062;28;20508;-78
2021/07/11 02:58:50;;;;;;;26.88;16.92;;;;;;;15.97;100.00;101291.59;6281490;28;20052;-78
2021/07/11 03:01:53;;;;;;;22.45;17.05;;;;;;;15.95;100.00;101296.16;6281452;28;20060;-79
2021/07/11 03:04:56;;;;;;;21.52;16.70;;;;;;;15.91;100.00;101286.72;6281222;28;20056;-79
2021/07/11 03:07:57;;;;;;;19.05;15.25;;;;;;;15.94;100.00;101286.47;6274277;28;20052;-78
2021/07/11 03:11:01;;;;;;;21.42;15.85;;;;;;;15.90;100.00;101277.06;6271157;28;20512;-79
2021/07/11 03:14:04;;;;;;;21.45;15.00;;;;;;;15.91;100.00;101281.41;6271185;28;20092;-78
2021/07/11 03:17:07;;;;;;;19.40;15.45;;;;;;;15.84;100.00;101286.25;6274796;28;20576;-79
2021/07/11 03:20:10;;;;;;;21.90;15.15;;;;;;;15.79;100.00;101288.38;6276030;28;20057;-78
2021/07/11 03:23:12;;;;;;;20.23;15.32;;;;;;;15.75;100.00;101286.03;6276068;28;20057;-79
2021/07/11 03:26:14;;;;;;;19.73;14.77;;;;;;;15.77;100.00;101294.75;6276127;28;20072;-78
2021/07/11 03:29:29;;;;;;;23.92;15.60;;;;;;;15.71;100.00;101278.28;6276028;28;20049;-78
2021/07/11 03:32:34;;;;;;;19.85;16.52;;;;;;;15.71;100.00;101283.59;6276102;28;20146;-78
2021/07/11 03:35:38;;;;;;;21.65;16.33;;;;;;;15.69;100.00;101288.13;6276888;28;20049;-78
2021/07/11 03:38:44;;;;;;;21.42;15.50;;;;;;;15.71;100.00;101291.53;6267057;28;20045;-79
2021/07/11 03:41:46;;;;;;;25.63;18.45;;;;;;;15.72;100.00;101289.75;6264713;28;20496;-78
2021/07/11 03:44:54;;;;;;;24.10;16.60;;;;;;;15.79;100.00;101295.47;6271524;28;20045;-79
2021/07/11 03:48:03;;;;;;;17.92;14.25;;;;;;;15.83;100.00;101291.66;6265749;28;20424;-79
2021/07/11 03:51:05;;;;;;;23.05;16.65;;;;;;;15.83;100.00;101294.31;6263459;28;20056;-78
2021/07/11 03:54:09;;;;;;;22.80;16.00;;;;;;;15.84;100.00;101296.00;6261712;28;20056;-78
2021/07/11 03:57:11;;;;;;;20.52;15.02;;;;;;;15.83;100.00;101295.16;6261257;28;20049;-78
2021/07/11 04:00:15;;;;;;;24.25;15.93;;;;;;;15.81;100.00;101298.88;6263982;28;20435;-78
2021/07/11 04:03:19;;;;;;;20.77;15.80;;;;;;;15.81;100.00;101296.22;6262508;28;20049;-79
2021/07/11 04:06:21;;;;;;;22.13;16.35;;;;;;;15.81;100.00;101299.72;6261149;28;20072;-78
2021/07/11 04:09:25;;;;;;;23.42;17.17;;;;;;;15.82;100.00;101311.19;6257884;28;20052;-78
2021/07/11 04:12:26;;;;;;;24.90;16.17;;;;;;;15.91;100.00;101308.75;6258501;28;20046;-78
2021/07/11 04:15:31;;;;;;;26.23;16.90;;;;;;;15.93;100.00;101306.00;6257012;28;20413;-78
2021/07/11 04:18:38;;;;;;;22.98;15.30;;;;;;;15.96;100.00;101305.81;6258146;28;20405;-79
2021/07/11 04:21:40;;;;;;;25.23;17.70;;;;;;;15.96;100.00;101305.81;6258385;28;20421;-78
2021/07/11 04:24:43;;;;;;;24.75;17.20;;;;;;;16.02;100.00;101313.34;6259446;28;20045;-78
2021/07/11 04:27:46;;;;;;;21.65;15.93;;;;;;;16.10;100.00;101318.13;6261218;28;20053;-79
2021/07/11 04:30:48;;;;;;;24.15;16.70;;;;;;;16.13;100.00;101316.13;6262498;28;20132;-79
2021/07/11 04:33:50;;;;;;;24.17;16.58;;;;;;;16.16;100.00;101323.84;6261050;28;20045;-78
2021/07/11 04:36:51;;;;;;;24.52;17.27;;;;;;;16.18;100.00;101321.97;6254159;28;20073;-78
2021/07/11 04:39:53;;;;;;;26.70;16.88;;;;;;;16.20;100.00;101317.41;6251837;28;20046;-78
2021/07/11 04:42:54;;;;;;;24.60;17.13;;;;;;;16.22;100.00;101325.28;6253991;28;20049;-78
2021/07/11 04:45:57;;;;;;;22.48;16.85;;;;;;;16.23;100.00;101324.31;6254405;28;20045;-78
2021/07/11 04:48:58;;;;;;;22.10;15.10;;;;;;;16.28;100.00;101324.00;6254542;28;20053;-78
2021/07/11 04:52:00;;;;;;;25.48;15.60;;;;;;;16.26;100.00;101324.13;6272858;28;20064;-78
2021/07/11 04:55:01;;;;;;;20.42;15.85;;;;;;;16.28;100.00;101324.84;6259848;28;20530;-78
2021/07/11 04:58:02;;;;;;;23.17;14.88;;;;;;;16.27;100.00;101327.59;6269704;28;20048;-78
2021/07/11 05:01:05;;;;;;;20.05;15.80;;;;;;;16.33;100.00;101335.13;6269383;28;20060;-78
2021/07/11 05:04:06;;;;;;;25.38;15.90;;;;;;;16.39;100.00;101334.72;6261840;28;20052;-78
2021/07/11 05:07:08;;;;;;;19.30;15.10;;;;;;;16.40;100.00;101325.81;6277957;28;20493;-78
2021/07/11 05:10:11;;;;;;;20.20;15.75;;;;;;;16.39;100.00;101330.25;6278676;28;20049;-78
2021/07/11 05:13:12;;;;;;;20.80;16.95;;;;;;;16.46;100.00;101328.03;6278667;28;20060;-79
2021/07/11 05:16:15;;;;;;;28.70;16.90;;;;;;;16.52;100.00;101337.38;6267033;28;20045;-78
2021/07/11 05:19:17;;;;;;;20.52;15.63;;;;;;;16.58;100.00;101335.16;6255516;28;20053;-78
2021/07/11 05:22:18;;;;;;;23.38;16.50;;;;;;;16.60;100.00;101335.91;6259491;28;20050;-78
2021/07/11 05:25:20;;;;;;;26.48;17.08;;;;;;;16.64;100.00;101337.38;6254880;28;20053;-78
2021/07/11 05:28:21;;;;;;;19.67;16.08;;;;;;;16.71;100.00;101336.00;6254880;28;20056;-79
2021/07/11 05:31:24;;;;;;;22.55;15.93;;;;;;;16.69;100.00;101334.41;6260130;28;20447;-79
2021/07/11 05:34:25;;;;;;;20.20;14.75;;;;;;;16.71;100.00;101338.66;6266549;28;20041;-78
2021/07/11 05:37:27;;;;;;;20.15;15.43;;;;;;;16.73;100.00;101327.97;6262320;28;20054;-79
2021/07/11 05:40:28;;;;;;;17.85;14.95;;;;;;;16.80;100.00;101333.69;6265883;28;20056;-78
2021/07/11 05:43:30;;;;;;;20.40;15.65;;;;;;;16.83;100.00;101339.63;6263221;28;20056;-79
2021/07/11 05:46:32;;;;;;;20.05;15.48;;;;;;;16.88;100.00;101341.97;6275698;28;20045;-79
2021/07/11 05:49:34;;;;;;;18.77;15.82;;;;;;;16.91;100.00;101337.28;6277914;28;20054;-78
2021/07/11 05:52:36;;;;;;;20.13;15.93;;;;;;;16.95;100.00;101341.44;6279083;28;20048;-79
2021/07/11 05:55:37;;;;;;;21.63;15.30;;;;;;;17.08;100.00;101343.19;6278205;28;20056;-78
2021/07/11 05:58:39;;;;;;;22.30;16.33;;;;;;;17.11;100.00;101335.88;6274446;28;20131;-78
2021/07/11 06:01:41;;;;;;;23.75;15.65;;;;;;;17.19;100.00;101346.81;6274380;28;20056;-79
2021/07/11 06:04:43;;;;;;;20.15;16.20;;;;;;;17.25;100.00;101346.34;6274554;28;20052;-78
2021/07/11 06:07:45;;;;;;;18.02;14.48;;;;;;;17.32;100.00;101352.09;6273947;28;20135;-78
2021/07/11 06:10:46;;;;;;;19.75;14.88;;;;;;;17.36;100.00;101347.41;6274404;28;20049;-78
2021/07/11 06:13:47;;;;;;;19.42;14.70;;;;;;;17.44;100.00;101335.25;6274491;28;20060;-78
2021/07/11 06:16:50;;;;;;;21.80;15.20;;;;;;;17.42;100.00;101338.97;6274303;28;20045;-79
2021/07/11 06:19:51;;;;;;;22.77;15.93;;;;;;;17.40;100.00;101336.44;6273636;28;20049;-79
2021/07/11 06:22:53;;;;;;;17.63;14.23;;;;;;;17.43;100.00;101325.56;6273511;28;20056;-79
2021/07/11 06:25:54;;;;;;;19.50;14.90;;;;;;;17.46;100.00;101327.16;6274553;28;20517;-79
2021/07/11 06:28:55;;;;;;;22.60;15.32;;;;;;;17.49;100.00;101333.13;6275272;28;20045;-79
2021/07/11 06:31:58;;;;;;;23.48;16.45;;;;;;;17.47;100.00;101331.53;6293017;22;20060;-74
2021/07/11 06:35:00;;;;;;;20.35;14.15;;;;;;;17.51;100.00;101338.31;6292704;28;20048;-74
2021/07/11 06:38:01;;;;;;;21.88;16.38;;;;;;;17.56;100.00;101345.94;6284575;28;20053;-73
2021/07/11 06:41:02;;;;;;;19.42;15.30;;;;;;;17.53;100.00;101346.16;6279977;28;20518;-74
2021/07/11 06:44:04;;;;;;;17.83;14.75;;;;;;;17.54;100.00;101350.53;6271070;28;20424;-74
2021/07/11 06:47:08;;;;;;;19.50;14.93;;;;;;;17.55;100.00;101347.75;6271291;28;20056;-74
2021/07/11 06:50:12;;;;;;;23.73;14.70;;;;;;;17.61;100.00;101349.97;6273562;28;20044;-73
2021/07/11 06:53:13;;;;;;;20.90;14.68;;;;;;;17.62;100.00;101346.38;6275816;28;20052;-73
2021/07/11 06:56:14;;;;;;;21.73;15.82;;;;;;;17.71;100.00;101360.75;6264684;28;20049;-72
2021/07/11 06:59:16;;;;;;;20.15;15.10;;;;;;;17.68;100.00;101358.34;6263150;28;20041;-73
2021/07/11 07:02:18;;;;;;;17.55;14.30;;;;;;;17.70;100.00;101357.25;6255661;28;20048;-73
2021/07/11 07:05:21;;;;;;;24.35;15.55;;;;;;;17.76;100.00;101353.34;6259400;28;20041;-73
2021/07/11 07:08:24;;;;;;;19.92;16.20;;;;;;;17.79;100.00;101352.25;6260220;28;20052;-73
2021/07/11 07:11:25;;;;;;;23.35;15.35;;;;;;;17.81;100.00;101353.00;6265506;28;20190;-73
2021/07/11 07:14:27;;;;;;;20.42;15.43;;;;;;;18.06;100.00;101354.69;6275138;28;20048;-74
2021/07/11 07:17:30;;;;;;;21.13;15.05;;;;;;;18.05;100.00;101345.00;6274483;28;20049;-73
2021/07/11 07:20:32;;;;;;;22.27;14.85;;;;;;;18.07;100.00;101351.03;6271965;28;20041;-74
2021/07/11 07:23:33;;;;;;;19.40;15.15;;;;;;;18.15;100.00;101346.84;6270510;28;20057;-73
2021/07/11 07:26:34;;;;;;;22.30;14.25;;;;;;;18.20;100.00;101350.00;6275148;28;20045;-73
2021/07/11 07:29:36;;;;;;;21.10;14.23;;;;;;;18.25;100.00;101342.50;6274489;28;20048;-74
2021/07/11 07:32:39;;;;;;;21.58;15.20;;;;;;;18.31;100.00;101343.03;6274932;28;20056;-74
2021/07/11 07:35:40;;;;;;;20.17;14.63;;;;;;;18.40;100.00;101352.97;6274928;28;20048;-73
2021/07/11 07:38:42;;;;;;;19.52;14.35;;;;;;;18.49;100.00;101352.28;6274643;28;20082;-72
2021/07/11 07:41:43;;;;;;;19.02;13.95;;;;;;;18.51;100.00;101345.00;6271691;28;20049;-74
2021/07/11 07:44:44;;;;;;;20.58;13.88;;;;;;;18.71;100.00;101351.47;6274269;28;20515;-74
2021/07/11 07:47:47;;;;;;;20.88;14.07;;;;;;;18.74;100.00;101344.09;6273512;28;20056;-74
2021/07/11 07:50:49;;;;;;;16.60;14.27;;;;;;;18.94;100.00;101345.22;6273564;28;20191;-74
2021/07/11 07:53:51;;;;;;;16.67;14.20;;;;;;;18.95;100.00;101340.72;6266705;28;20240;-74
2021/07/11 07:56:52;;;;;;;20.92;15.15;;;;;;;19.05;100.00;101340.84;6258358;28;20072;-73
2021/07/11 07:59:55;;;;;;;21.48;15.30;;;;;;;19.00;100.00;101333.22;6269961;28;20052;-74
2021/07/11 08:02:59;;;;;;;23.35;14.90;;;;;;;19.25;99.27;101338.25;6272339;28;20045;-74
2021/07/11 08:06:00;;;;;;;17.00;13.45;;;;;;;19.32;98.51;101325.31;6273346;28;20601;-74
2021/07/11 08:09:03;;;;;;;25.30;15.60;;;;;;;19.31;100.00;101334.28;6273186;28;20056;-74
2021/07/11 08:12:04;;;;;;;20.10;14.75;;;;;;;19.26;100.00;101324.00;6273824;28;20045;-75
2021/07/11 08:15:07;;;;;;;20.65;14.75;;;;;;;19.38;98.14;101329.28;6274006;28;20045;-73
2021/07/11 08:18:10;;;;;;;24.60;15.15;;;;;;;19.53;98.13;101328.06;6273762;28;20056;-74
2021/07/11 08:21:11;;;;;;;18.98;13.55;;;;;;;19.50;96.27;101321.13;6273627;28;20394;-73
2021/07/11 08:24:12;;;;;;;20.67;12.68;;;;;;;19.70;94.39;101327.53;6273238;28;20060;-74
2021/07/11 08:27:14;;;;;;;21.75;12.73;;;;;;;19.67;94.74;101327.78;6260124;28;20416;-74
2021/07/11 08:30:17;;;;;;;16.05;12.68;;;;;;;19.76;94.89;101327.03;6247693;28;20054;-74
2021/07/11 08:33:19;;;;;;;18.35;12.93;;;;;;;19.74;93.67;101331.63;6248076;28;20140;-75
2021/07/11 08:36:21;;;;;;;18.42;12.70;;;;;;;19.79;94.47;101330.41;6248379;28;20049;-74
2021/07/11 08:39:23;;;;;;;14.57;11.75;;;;;;;19.88;95.05;101330.47;6247599;28;20050;-74
2021/07/11 08:42:24;;;;;;;17.00;12.38;;;;;;;19.89;94.08;101328.66;6248517;28;20057;-74
2021/07/11 08:45:25;;;;;;;15.93;12.27;;;;;;;19.92;95.63;101331.91;6247695;28;20064;-74
2021/07/11 08:48:28;;;;;;;17.15;12.60;;;;;;;19.97;95.68;101328.88;6247374;28;20420;-74
2021/07/11 08:51:31;;;;;;;17.85;12.30;;;;;;;20.16;92.84;101321.00;6247704;28;20071;-74
2021/07/11 08:54:32;;;;;;;16.23;11.90;;;;;;;20.27;92.77;101336.13;6247881;28;20543;-74
2021/07/11 08:57:34;;;;;;;14.10;10.70;;;;;;;20.37;91.05;101337.03;6247749;28;20425;-74
2021/07/11 09:00:38;;;;;;;14.90;11.32;;;;;;;20.65;90.34;101324.84;6272321;28;20049;-74
2021/07/11 09:03:41;;;;;;;14.75;10.73;;;;;;;20.57;88.17;101323.81;6272710;28;20056;-74
2021/07/11 09:06:47;;;;;;;13.30;9.82;;;;;;;20.82;84.58;101328.72;6269779;28;20044;-74
2021/07/11 09:09:54;;;;;;;13.20;9.77;;;;;;;20.80;88.45;101321.81;6270952;28;20048;-74
2021/07/11 09:12:56;;;;;;;11.00;9.43;;;;;;;20.97;81.78;101324.69;6264801;28;20049;-74
2021/07/11 09:15:59;;;;;;;13.38;9.65;;;;;;;20.98;84.34;101322.88;6247673;28;20397;-74
2021/07/11 09:19:02;;;;;;;11.13;9.27;;;;;;;20.94;84.91;101322.31;6247368;28;20053;-74
2021/07/11 09:22:06;;;;;;;14.50;9.38;;;;;;;21.10;81.41;101323.63;6247447;28;20053;-74
2021/07/11 09:25:09;;;;;;;10.18;8.65;;;;;;;21.02;85.12;101325.13;6247363;28;20052;-74
2021/07/11 09:28:11;;;;;;;14.05;8.55;;;;;;;21.06;85.35;101325.72;6247245;28;20072;-74
2021/07/11 09:31:16;;;;;;;11.43;8.73;;;;;;;21.16;87.00;101326.59;6247638;28;20157;-73
2021/07/11 09:34:23;;;;;;;16.77;8.98;;;;;;;21.47;81.45;101324.72;6262883;28;20049;-74
2021/07/11 09:37:24;;;;;;;10.27;8.05;;;;;;;21.40;82.58;101318.25;6253302;28;20128;-74
2021/07/11 09:40:27;;;;;;;11.85;9.23;;;;;;;21.50;81.93;101319.09;6255001;28;20535;-73
2021/07/11 09:43:39;;;;;;;13.07;9.15;;;;;;;21.29;83.85;101318.31;6271358;28;20053;-74
2021/07/11 09:46:40;;;;;;;16.77;9.00;;;;;;;21.48;81.21;101320.22;6271390;28;20045;-72
2021/07/11 09:49:43;;;;;;;9.27;8.07;;;;;;;21.48;80.69;101313.06;6256619;28;20057;-74
2021/07/11 09:52:46;;;;;;;14.57;9.65;;;;;;;21.41;83.04;101324.44;6247091;28;20049;-74
2021/07/11 09:55:47;;;;;;;11.65;8.88;;;;;;;21.40;83.06;101312.91;6246424;28;20060;-74
2021/07/11 09:58:55;;;;;;;12.77;8.75;;;;;;;21.56;85.43;101311.50;6245971;28;20049;-74
2021/07/11 10:01:56;;;;;;;12.30;8.52;;;;;;;21.78;86.06;101313.91;6246735;28;20049;-74
2021/07/11 10:04:59;;;;;;;9.88;8.25;;;;;;;21.88;85.09;101312.06;6246232;28;20053;-74
2021/07/11 10:08:01;;;;;;;14.82;8.10;;;;;;;22.13;78.23;101301.81;6270600;28;20048;-74
2021/07/11 10:11:03;;;;;;;13.77;8.27;;;;;;;22.11;78.65;101306.44;6271110;28;20053;-73
2021/07/11 10:14:04;;;;;;;11.55;7.97;;;;;;;22.11;80.01;101299.25;6270644;28;20531;-75
2021/07/11 10:17:06;;;;;;;10.00;7.60;;;;;;;22.16;83.89;101307.72;6271170;28;20052;-74
2021/07/11 10:20:09;;;;;;;8.98;7.28;;;;;;;22.19;81.17;101303.91;6270703;28;20045;-74
2021/07/11 10:23:22;;;;;;;8.50;7.60;;;;;;;22.22;84.29;101304.47;6271278;28;20053;-73
2021/07/11 10:26:34;;;;;;;8.93;7.07;;;;;;;22.24;82.43;101304.31;6278873;28;20061;-74
2021/07/11 10:29:45;;;;;;;13.45;8.02;;;;;;;22.31;80.87;101301.94;6278098;28;20060;-74
2021/07/11 10:32:47;;;;;;;11.35;7.95;;;;;;;22.37;80.85;101304.88;6273900;28;20057;-74
2021/07/11 10:35:51;;;;;;;11.20;8.00;;;;;;;22.26;81.44;101305.03;6254041;28;20049;-74
2021/07/11 10:38:54;;;;;;;9.23;7.47;;;;;;;22.23;81.59;101311.53;6264554;28;20049;-74
2021/07/11 10:41:55;;;;;;;10.43;7.68;;;;;;;22.19;82.83;101318.16;6269053;28;20057;-74
2021/07/11 10:45:07;;;;;;;9.35;8.45;;;;;;;22.13;81.15;101307.19;6254486;28;20420;-74
2021/07/11 10:48:08;;;;;;;11.82;8.07;;;;;;;22.36;82.97;101313.06;6254391;28;20045;-74
2021/07/11 10:51:20;;;;;;;10.15;8.45;;;;;;;22.47;78.99;101304.84;6254506;28;20049;-74
2021/07/11 10:54:24;;;;;;;11.88;7.95;;;;;;;22.45;80.21;101313.03;6254268;28;20199;-75
2021/07/11 10:57:28;;;;;;;10.55;8.02;;;;;;;22.54;80.40;101304.13;6254577;28;20513;-74
2021/07/11 11:00:30;;;;;;;9.00;7.57;;;;;;;22.97;78.50;101296.50;6254029;28;20056;-74
2021/07/11 11:03:31;;;;;;;11.52;8.07;;;;;;;23.22;78.52;101295.78;6254546;28;20049;-74
2021/07/11 11:06:39;;;;;;;8.73;7.18;;;;;;;23.17;78.20;101298.09;6254279;28;20492;-74
2021/07/11 11:09:43;;;;;;;10.43;7.93;;;;;;;23.08;78.92;101298.97;6254196;28;20064;-74
2021/07/11 11:12:44;;;;;;;13.05;7.03;;;;;;;22.95;79.12;101307.38;6254360;28;20076;-74
2021/07/11 11:15:48;;;;;;;10.23;7.63;;;;;;;22.78;78.92;101300.91;6254097;28;20053;-74
2021/07/11 11:18:51;;;;;;;10.73;6.68;;;;;;;22.77;79.21;101296.56;6253978;28;20416;-75
2021/07/11 11:21:55;;;;;;;10.65;7.32;;;;;;;22.74;81.80;101291.47;6254026;28;20516;-74
2021/07/11 11:24:58;;;;;;;9.07;7.53;;;;;;;22.65;83.52;101300.41;6254228;28;20056;-75
2021/07/11 11:27:59;;;;;;;15.35;7.57;;;;;;;22.57;81.32;101300.28;6253729;28;20069;-74
2021/07/11 11:31:06;;;;;;;10.98;7.80;;;;;;;22.50;81.08;101300.03;6253857;28;20049;-74
2021/07/11 11:34:08;;;;;;;10.68;8.15;;;;;;;22.64;84.13;101295.19;6253770;28;20057;-75
2021/07/11 11:37:15;;;;;;;11.98;7.13;;;;;;;22.70;81.09;101292.75;6249650;28;20076;-74
2021/07/11 11:40:18;;;;;;;9.63;7.80;;;;;;;22.64;80.75;101293.38;6249732;28;20049;-74
2021/07/11 11:43:23;;;;;;;16.30;7.95;;;;;;;22.63;81.34;101294.34;6250013;28;20053;-74
2021/07/11 11:46:26;;;;;;;8.13;6.85;;;;;;;22.58;82.37;101285.91;6249815;28;20068;-74
2021/07/11 11:49:29;;;;;;;9.02;6.32;;;;;;;22.54;81.70;101290.72;6249637;28;20049;-74
2021/07/11 11:52:32;;;;;;;7.50;6.68;;;;;;;22.71;84.59;101290.94;6249636;28;20060;-74
2021/07/11 11:55:33;;;;;;;7.55;6.65;;;;;;;23.04;85.03;101284.19;6249561;28;20068;-74
2021/07/11 11:58:35;;;;;;;10.32;6.50;;;;;;;23.26;82.21;101283.78;6248877;28;20057;-75
2021/07/11 12:01:37;;;;;;;9.52;6.35;;;;;;;23.52;83.93;101286.53;6249555;28;20057;-74
2021/07/11 12:04:38;;;;;;;8.73;6.22;;;;;;;23.78;79.78;101289.31;6249358;28;20191;-74
2021/07/11 12:07:42;;;;;;;9.88;5.95;;;;;;;23.90;80.63;101292.63;6249337;28;20417;-73
2021/07/11 12:10:45;;;;;;;8.20;6.07;;;;;;;23.87;82.36;101297.44;6249203;28;20068;-74
2021/07/11 12:13:47;;;;;;;7.35;5.75;;;;;;;23.96;78.12;101299.22;6249347;28;20057;-74
2021/07/11 12:16:57;;;;;;;10.07;5.75;;;;;;;23.84;81.61;101295.06;6249196;28;20540;-74
2021/07/11 12:19:59;;;;;;;11.10;5.93;;;;;;;23.76;78.20;101296.69;6249047;28;20056;-73
2021/07/11 12:23:09;;;;;;;6.78;5.93;;;;;;;23.62;78.18;101299.91;6250346;28;20053;-74
2021/07/11 12:26:11;;;;;;;11.68;5.90;;;;;;;23.44;80.17;101301.72;6258686;28;20049;-74
2021/07/11 12:29:15;;;;;;;7.10;5.43;;;;;;;23.31;81.29;101296.72;6260436;28;20126;-74
2021/07/11 12:32:17;;;;;;;10.70;6.22;;;;;;;23.14;82.24;101297.53;6259593;28;20128;-74
2021/07/11 12:35:19;;;;;;;6.43;5.57;;;;;;;22.99;83.81;101298.03;6259210;28;20044;-74
2021/07/11 12:38:30;;;;;;;10.30;5.13;;;;;;;22.86;81.56;101296.66;6259088;28;20049;-74
2021/07/11 12:41:35;;;;;;;7.97;4.57;;;;;;;22.84;78.10;101295.94;6269535;28;20052;-76
2021/07/11 12:44:40;;;;;;;8.35;5.70;;;;;;;22.79;78.98;101291.88;6273493;28;20053;-75
2021/07/11 12:47:49;;;;;;;6.60;4.35;;;;;;;22.87;81.06;101291.16;6272962;28;20044;-75
2021/07/11 12:50:50;;;;;;;5.65;4.80;;;;;;;22.99;82.46;101294.53;6273357;28;20053;-75
2021/07/11 12:53:54;;;;;;;7.35;5.05;;;;;;;23.11;77.30;101293.31;6273226;28;20049;-75
2021/07/11 12:56:58;;;;;;;6.53;4.63;;;;;;;23.34;71.53;101280.31;6272947;28;20057;-75
2021/07/11 12:59:59;;;;;;;7.97;4.60;;;;;;;23.58;72.87;101278.88;6272807;28;20546;-75
2021/07/11 13:03:02;;;;;;;5.72;4.95;;;;;;;23.87;77.03;101279.50;6272852;28;20049;-75
2021/07/11 13:06:04;;;;;;;5.00;4.22;;;;;;;24.14;71.30;101278.53;6272785;28;20060;-75
2021/07/11 13:09:08;;;;;;;5.45;4.20;;;;;;;24.22;69.22;101277.75;6272322;28;20389;-75
2021/07/11 13:12:10;;;;;;;4.40;4.00;;;;;;;24.45;70.46;101276.25;6252856;28;20436;-75
2021/07/11 13:15:13;;;;;;;4.70;4.13;;;;;;;25.09;66.09;101270.50;6247740;28;20130;-75
2021/07/11 13:18:15;;;;;;;4.93;4.13;;;;;;;25.65;65.29;101272.44;6256408;28;20041;-75
2021/07/11 13:21:16;;;;;;;6.30;4.25;;;;;;;25.74;61.93;101273.28;6257314;28;20096;-76
2021/07/11 13:24:19;;;;;;;5.47;4.05;;;;;;;25.84;58.34;101267.75;6259468;28;20053;-75
2021/07/11 13:27:20;;;;;;;4.45;4.05;;;;;;;25.59;62.72;101262.34;6256616;28;20057;-76
2021/07/11 13:30:25;;;;;;;4.85;4.22;;;;;;;25.21;66.89;101255.75;6256857;28;20045;-75
2021/07/11 13:33:28;;;;;;;10.60;4.35;;;;;;;24.80;64.18;101258.28;6258916;28;20049;-75
2021/07/11 13:36:29;;;;;;;6.25;4.50;;;;;;;24.40;69.07;101251.69;6257972;28;20037;-75
2021/07/11 13:39:32;;;;;;;8.95;4.63;;;;;;;24.28;68.94;101251.09;6257928;28;20052;-75
2021/07/11 13:42:35;;;;;;;6.68;5.05;;;;;;;24.13;71.59;101251.84;6258230;28;20394;-75
2021/07/11 13:45:40;;;;;;;8.90;5.05;;;;;;;24.02;73.57;101260.97;6254883;28;20041;-75
2021/07/11 13:48:41;;;;;;;10.25;5.07;;;;;;;23.96;74.23;101259.78;6260527;28;20381;-75
2021/07/11 13:51:43;;;;;;;5.90;4.82;;;;;;;24.00;73.80;101263.84;6270904;28;20442;-75